Time;durP1;ratioP1;P1;durP2;ratioP2;P2;SDS_P1;SDS_P2;PMS_P1;PMS_P2;Temp;Humidity;BMP_temperature;BMP_pressure;BME280_temperature;BME280_humidity;BME280_pressure;Samples;Min_cycle;Max_cycle;Signal;HPM_P1;HPM_P2
2022/11/28 00:00:28;;;;;;;10.98;5.75;;;;;;;7.21;92.96;100922.94;5132905;27;20031;-65
2022/11/28 00:02:54;;;;;;;8.60;6.07;;;;;;;7.24;92.98;100930.00;5134230;27;20042;-65
2022/11/28 00:05:19;;;;;;;8.02;5.78;;;;;;;7.26;93.80;100923.94;5133951;27;20073;-65
2022/11/28 00:07:44;;;;;;;9.68;5.68;;;;;;;7.27;94.22;100923.06;5133967;27;20079;-65
2022/11/28 00:10:10;;;;;;;8.48;5.38;;;;;;;7.30;93.43;100919.63;5133949;27;20030;-65
2022/11/28 00:12:36;;;;;;;8.23;5.57;;;;;;;7.33;93.79;100908.31;5133942;27;20056;-66
2022/11/28 00:15:02;;;;;;;11.57;6.15;;;;;;;7.33;94.11;100919.72;5133932;27;20153;-65
2022/11/28 00:17:28;;;;;;;10.45;6.10;;;;;;;7.35;93.31;100915.38;5133964;27;20023;-65
2022/11/28 00:19:53;;;;;;;9.82;5.50;;;;;;;7.39;93.87;100911.97;5132464;27;20554;-64
2022/11/28 00:22:18;;;;;;;8.77;5.57;;;;;;;7.43;94.61;100910.31;5133843;27;20532;-64
2022/11/28 00:24:44;;;;;;;8.88;5.15;;;;;;;7.43;94.26;100902.44;5133865;27;20031;-65
2022/11/28 00:27:09;;;;;;;9.45;5.40;;;;;;;7.49;93.89;100913.09;5133629;28;20033;-65
2022/11/28 00:29:34;;;;;;;9.50;5.40;;;;;;;7.47;94.10;100894.66;5134092;28;20058;-65
2022/11/28 00:32:00;;;;;;;8.70;5.25;;;;;;;7.53;94.63;100901.78;5132484;28;20033;-65
2022/11/28 00:34:25;;;;;;;9.68;5.57;;;;;;;7.52;94.94;100898.28;5132506;28;20024;-65
2022/11/28 00:36:50;;;;;;;9.85;5.38;;;;;;;7.55;94.55;100902.72;5133643;28;20058;-65
2022/11/28 00:39:16;;;;;;;9.15;4.88;;;;;;;7.57;94.69;100900.13;5133701;27;20477;-65
2022/11/28 00:41:43;;;;;;;7.50;4.80;;;;;;;7.62;94.71;100893.22;5133782;27;20027;-65
2022/11/28 00:44:09;;;;;;;6.53;4.32;;;;;;;7.65;94.51;100901.19;5133733;27;20027;-64
2022/11/28 00:46:35;;;;;;;7.60;4.90;;;;;;;7.69;94.68;100898.69;5133908;27;20095;-65
2022/11/28 00:49:01;;;;;;;9.07;4.60;;;;;;;7.76;93.96;100897.97;5136410;27;20119;-65
2022/11/28 00:51:28;;;;;;;5.97;4.05;;;;;;;7.81;93.84;100887.56;5138190;27;20064;-65
2022/11/28 00:53:56;;;;;;;7.30;4.22;;;;;;;7.84;93.64;100884.13;5137604;27;20569;-65
2022/11/28 00:56:24;;;;;;;6.75;4.00;;;;;;;7.88;93.13;100892.09;5137750;27;20476;-64
2022/11/28 00:58:50;;;;;;;7.57;4.55;;;;;;;7.91;92.56;100889.53;5137642;27;20031;-65
2022/11/28 01:01:19;;;;;;;6.60;4.40;;;;;;;7.96;92.66;100889.63;5137598;27;20151;-65
2022/11/28 01:03:45;;;;;;;6.70;4.20;;;;;;;7.98;92.39;100886.19;5137638;27;20088;-65
2022/11/28 01:06:29;;;;;;;5.57;3.88;;;;;;;8.00;91.76;100879.19;5137631;27;20523;-65
2022/11/28 01:08:57;;;;;;;6.13;4.35;;;;;;;8.03;92.19;100883.66;5137579;27;20061;-65
2022/11/28 01:11:23;;;;;;;7.45;4.47;;;;;;;8.03;92.09;100886.28;5137413;27;20031;-65
2022/11/28 01:13:48;;;;;;;6.68;4.40;;;;;;;8.02;92.50;100890.66;5137316;27;20045;-65
2022/11/28 01:16:14;;;;;;;10.63;4.68;;;;;;;8.03;92.10;100891.53;5137419;27;20034;-65
2022/11/28 01:18:40;;;;;;;8.77;4.40;;;;;;;8.00;92.80;100892.34;5135853;27;20023;-66
2022/11/28 01:21:07;;;;;;;7.68;4.53;;;;;;;7.99;92.83;100887.06;5135982;27;20027;-66
2022/11/28 01:23:32;;;;;;;5.97;4.30;;;;;;;7.97;93.07;100887.03;5137233;27;20023;-66
2022/11/28 01:25:59;;;;;;;8.57;4.70;;;;;;;7.95;93.33;100877.34;5137332;27;20034;-65
2022/11/28 01:28:24;;;;;;;7.03;4.28;;;;;;;7.92;93.49;100880.81;5137387;27;20037;-64
2022/11/28 01:30:50;;;;;;;6.07;4.50;;;;;;;7.95;92.83;100883.47;5137112;27;20035;-65
2022/11/28 01:33:15;;;;;;;8.55;4.50;;;;;;;7.94;92.99;100881.72;5136995;27;20053;-65
2022/11/28 01:35:40;;;;;;;7.47;4.18;;;;;;;7.93;93.49;100884.31;5137222;27;20024;-65
2022/11/28 01:38:06;;;;;;;7.43;4.32;;;;;;;7.94;93.44;100888.72;5137089;27;20043;-65
2022/11/28 01:40:31;;;;;;;8.57;4.40;;;;;;;7.91;93.39;100888.63;5136939;27;20073;-65
2022/11/28 01:42:57;;;;;;;7.50;4.70;;;;;;;7.88;94.15;100886.84;5136991;27;20416;-64
2022/11/28 01:45:30;;;;;;;6.38;4.30;;;;;;;7.84;95.51;100887.63;5136786;27;20038;-65
2022/11/28 01:48:01;;;;;;;7.50;4.55;;;;;;;7.81;96.11;100894.56;5136668;27;20095;-64
2022/11/28 01:50:28;;;;;;;8.07;4.43;;;;;;;7.76;97.57;100883.94;5135242;27;20019;-65
2022/11/28 01:52:58;;;;;;;7.30;4.20;;;;;;;7.74;97.48;100888.25;5136368;27;20430;-65
2022/11/28 01:55:29;;;;;;;7.63;4.57;;;;;;;7.70;97.99;100889.94;5136603;27;20037;-65
2022/11/28 01:57:55;;;;;;;7.78;4.57;;;;;;;7.66;98.63;100882.81;5136863;27;20039;-66
2022/11/28 02:00:21;;;;;;;10.50;3.97;;;;;;;7.67;98.25;100886.38;5135847;27;20027;-66
2022/11/28 02:02:55;;;;;;;7.03;3.92;;;;;;;7.68;97.74;100888.13;5136470;27;20499;-66
2022/11/28 02:05:21;;;;;;;7.68;4.60;;;;;;;7.66;98.27;100880.19;5136507;27;20035;-66
2022/11/28 02:07:47;;;;;;;7.63;4.72;;;;;;;7.65;98.55;100882.78;5135051;27;20058;-66
2022/11/28 02:10:35;;;;;;;8.80;4.45;;;;;;;7.63;99.10;100876.63;5136400;27;20026;-66
2022/11/28 02:13:00;;;;;;;7.18;4.65;;;;;;;7.64;99.29;100867.88;5136354;27;20027;-67
2022/11/28 02:15:43;;;;;;;6.60;4.65;;;;;;;7.64;99.66;100867.88;5136236;27;20019;-66
2022/11/28 02:18:25;;;;;;;9.05;3.83;;;;;;;7.64;98.77;100862.63;5136436;27;20152;-67
2022/11/28 02:20:50;;;;;;;;;;;;;;;7.64;98.51;100854.72;5135129;27;20027;-66
2022/11/28 02:23:41;;;;;;;6.93;3.90;;;;;;;7.65;98.12;100864.38;5134797;27;20053;-66
2022/11/28 02:26:15;;;;;;;7.13;3.63;;;;;;;7.65;98.47;100862.63;5136135;27;20391;-67
2022/11/28 02:29:02;;;;;;;6.10;3.78;;;;;;;7.64;98.65;100859.97;5134665;27;20083;-66
2022/11/28 02:31:58;;;;;;;6.07;3.47;;;;;;;7.63;98.30;100853.84;5135942;27;20055;-67
2022/11/28 02:34:45;;;;;;;6.60;3.75;;;;;;;7.66;97.91;100860.88;5135742;27;20106;-67
2022/11/28 02:37:19;;;;;;;5.90;3.50;;;;;;;7.65;98.04;100862.63;5135855;27;20098;-66
2022/11/28 02:40:02;;;;;;;5.68;3.50;;;;;;;7.65;98.05;100856.50;5134451;27;20121;-66
2022/11/28 02:42:50;;;;;;;7.07;3.60;;;;;;;7.64;98.47;100863.50;5135960;27;20031;-66
2022/11/28 02:45:27;;;;;;;8.02;3.75;;;;;;;7.62;99.32;100859.94;5135767;27;20037;-67
2022/11/28 02:48:14;;;;;;;6.75;3.83;;;;;;;7.59;99.51;100862.50;5135702;27;20027;-67
2022/11/28 02:51:13;;;;;;;5.60;3.35;;;;;;;7.58;99.66;100859.81;5135654;27;20038;-67
2022/11/28 02:53:42;;;;;;;5.18;3.40;;;;;;;7.56;99.35;100856.28;5134830;27;20039;-66
2022/11/28 02:56:09;;;;;;;5.75;3.85;;;;;;;7.50;99.79;100857.03;5135447;27;20046;-68
2022/11/28 02:58:35;;;;;;;5.68;3.63;;;;;;;7.51;100.00;100862.31;5134179;27;20030;-67
2022/11/28 03:01:00;;;;;;;4.70;3.20;;;;;;;7.50;100.00;100859.66;5135329;27;20023;-67
2022/11/28 03:03:54;;;;;;;10.95;3.60;;;;;;;7.46;100.00;100850.81;5135204;27;20076;-67
2022/11/28 03:06:32;;;;;;;6.78;3.88;;;;;;;7.45;100.00;100850.75;5135358;27;20019;-67
2022/11/28 03:09:15;;;;;;;6.15;3.80;;;;;;;7.43;100.00;100847.22;5135102;27;20064;-67
2022/11/28 03:12:01;;;;;;;7.15;4.00;;;;;;;7.43;100.00;100839.34;5133992;27;20027;-67
2022/11/28 03:14:52;;;;;;;6.32;3.90;;;;;;;7.43;100.00;100834.97;5120781;27;20032;-67
2022/11/28 03:17:31;;;;;;;7.22;3.50;;;;;;;7.40;100.00;100841.88;5125366;27;20038;-68
2022/11/28 03:20:18;;;;;;;7.03;3.90;;;;;;;7.41;100.00;100839.31;5135095;27;20076;-67
2022/11/28 03:22:56;;;;;;;5.30;3.92;;;;;;;7.38;100.00;100838.34;5134904;27;20011;-67
2022/11/28 03:25:53;;;;;;;5.47;3.40;;;;;;;7.39;100.00;100846.25;5134923;27;20050;-67
2022/11/28 03:28:21;;;;;;;5.43;3.80;;;;;;;7.38;100.00;100846.22;5134801;27;20026;-67
2022/11/28 03:31:03;;;;;;;7.38;3.67;;;;;;;7.38;100.00;100841.88;5134683;27;20023;-67
2022/11/28 03:33:33;;;;;;;6.90;3.72;;;;;;;7.35;100.00;100836.53;5134734;27;20080;-67
2022/11/28 03:36:05;;;;;;;7.95;3.83;;;;;;;7.36;100.00;100840.91;5134553;27;20037;-67
2022/11/28 03:38:36;;;;;;;7.60;4.22;;;;;;;7.35;100.00;100844.41;5134614;27;20106;-67
2022/11/28 03:41:09;;;;;;;7.47;3.90;;;;;;;7.35;100.00;100833.91;5134895;27;20375;-67
2022/11/28 03:43:41;;;;;;;7.40;3.97;;;;;;;7.32;100.00;100832.94;5134820;27;20079;-68
2022/11/28 03:46:12;;;;;;;6.93;3.83;;;;;;;7.33;100.00;100834.72;5134846;27;20023;-67
2022/11/28 03:48:47;;;;;;;7.13;3.72;;;;;;;7.32;100.00;100844.31;5134804;27;20034;-68
2022/11/28 03:51:32;;;;;;;6.63;4.05;;;;;;;7.33;100.00;100837.38;5133174;27;20045;-67
2022/11/28 03:54:10;;;;;;;5.32;3.65;;;;;;;7.33;100.00;100837.38;5134102;27;20046;-67
2022/11/28 03:56:54;;;;;;;5.57;3.35;;;;;;;7.36;100.00;100842.66;5133359;27;20030;-67
2022/11/28 03:59:30;;;;;;;6.80;3.67;;;;;;;7.34;100.00;100844.38;5134292;27;20114;-67
2022/11/28 04:02:13;;;;;;;8.13;3.95;;;;;;;7.37;100.00;100836.59;5134304;27;20035;-67
2022/11/28 04:04:49;;;;;;;8.50;3.65;;;;;;;7.35;100.00;100839.16;5134238;27;20031;-67
2022/11/28 04:07:43;;;;;;;6.70;3.58;;;;;;;7.33;100.00;100838.25;5134336;27;20035;-67
2022/11/28 04:10:24;;;;;;;4.95;3.63;;;;;;;7.34;100.00;100849.63;5134146;27;20069;-67
2022/11/28 04:12:57;;;;;;;5.75;3.60;;;;;;;7.34;100.00;100841.75;5132696;27;20062;-67
2022/11/28 04:15:37;;;;;;;7.30;3.75;;;;;;;7.33;100.00;100847.88;5134398;27;20445;-67
2022/11/28 04:18:28;;;;;;;9.07;4.18;;;;;;;7.34;100.00;100847.00;5134077;27;20015;-67
2022/11/28 04:21:09;;;;;;;6.32;3.97;;;;;;;7.33;100.00;100842.63;5133895;27;20011;-67
2022/11/28 04:23:38;;;;;;;6.78;3.90;;;;;;;7.32;100.00;100838.19;5133743;27;20038;-67
2022/11/28 04:26:10;;;;;;;6.40;3.97;;;;;;;7.35;100.00;100843.53;5133967;27;20027;-67
2022/11/28 04:28:36;;;;;;;6.15;3.97;;;;;;;7.33;100.00;100848.75;5133992;27;20058;-67
2022/11/28 04:31:04;;;;;;;7.45;4.10;;;;;;;7.34;100.00;100849.63;5133893;27;20026;-67
2022/11/28 04:33:34;;;;;;;6.05;3.60;;;;;;;7.33;100.00;100847.88;5134054;27;20144;-66
2022/11/28 04:36:01;;;;;;;6.25;4.32;;;;;;;7.32;100.00;100852.22;5133802;27;20024;-67
2022/11/28 04:38:28;;;;;;;6.70;4.30;;;;;;;7.30;100.00;100843.41;5133790;27;20499;-67
2022/11/28 04:41:19;;;;;;;7.38;3.83;;;;;;;7.31;100.00;100844.31;5132573;28;20484;-67
2022/11/28 04:43:52;;;;;;;6.57;4.00;;;;;;;7.30;100.00;100843.41;5133854;27;20027;-66
2022/11/28 04:46:29;;;;;;;5.65;3.97;;;;;;;7.30;100.00;100846.03;5133761;27;20057;-67
2022/11/28 04:48:54;;;;;;;6.90;3.92;;;;;;;7.31;100.00;100844.31;5133516;27;20547;-67
2022/11/28 04:51:41;;;;;;;8.68;4.00;;;;;;;7.29;100.00;100841.66;5133747;27;20098;-70
2022/11/28 04:54:51;;;;;;;6.30;3.88;;;;;;;7.32;100.00;100848.69;5133401;27;20559;-67
2022/11/28 04:57:23;;;;;;;5.85;3.90;;;;;;;7.31;100.00;100841.69;5112424;27;20471;-67
2022/11/28 04:59:49;;;;;;;5.38;3.80;;;;;;;7.31;100.00;100839.03;5133648;27;20032;-67
2022/11/28 05:02:17;;;;;;;5.30;4.03;;;;;;;7.30;100.00;100838.16;5132379;28;20110;-67
2022/11/28 05:04:43;;;;;;;7.70;4.13;;;;;;;7.30;100.00;100832.91;5133656;27;20442;-67
2022/11/28 05:07:09;;;;;;;8.45;4.18;;;;;;;7.31;100.00;100834.66;5133522;27;20141;-66
2022/11/28 05:09:35;;;;;;;6.50;4.18;;;;;;;7.28;100.00;100848.66;5133621;27;20035;-66
2022/11/28 05:12:01;;;;;;;6.75;4.03;;;;;;;7.30;100.00;100842.53;5133456;27;20027;-67
2022/11/28 05:14:26;;;;;;;5.72;3.95;;;;;;;7.29;100.00;100849.53;5133359;27;20026;-67
2022/11/28 05:16:51;;;;;;;6.25;4.05;;;;;;;7.30;100.00;100856.56;5133662;27;20023;-67
2022/11/28 05:19:17;;;;;;;5.35;3.67;;;;;;;7.29;100.00;100849.53;5131887;28;20023;-67
2022/11/28 05:21:43;;;;;;;5.97;3.95;;;;;;;7.31;100.00;100857.44;5133398;27;20561;-67
2022/11/28 05:24:09;;;;;;;7.68;4.60;;;;;;;7.31;100.00;100860.06;5133385;27;20060;-67
2022/11/28 05:26:35;;;;;;;6.78;4.38;;;;;;;7.31;100.00;100853.06;5133374;27;20035;-67
2022/11/28 05:29:01;;;;;;;6.90;4.15;;;;;;;7.32;100.00;100854.84;5133197;28;20480;-67
2022/11/28 05:31:27;;;;;;;6.70;4.47;;;;;;;7.32;100.00;100857.47;5133249;27;20068;-67
2022/11/28 05:33:54;;;;;;;7.63;4.55;;;;;;;7.33;100.00;100856.66;5133250;27;20043;-67
2022/11/28 05:36:20;;;;;;;6.80;4.28;;;;;;;7.33;100.00;100859.28;5135163;27;20027;-67
2022/11/28 05:38:46;;;;;;;6.93;4.32;;;;;;;7.32;100.00;100864.47;5136905;27;20031;-67
2022/11/28 05:41:27;;;;;;;7.63;4.60;;;;;;;7.31;100.00;100860.06;5137123;27;20072;-67
2022/11/28 05:43:55;;;;;;;7.30;4.57;;;;;;;7.33;100.00;100866.28;5136910;27;20464;-67
2022/11/28 05:46:20;;;;;;;6.82;4.40;;;;;;;7.33;100.00;100864.53;5136989;27;20062;-67
2022/11/28 05:48:46;;;;;;;6.45;4.70;;;;;;;7.26;100.00;100847.72;5136943;27;20058;-67
2022/11/28 05:51:12;;;;;;;8.10;4.90;;;;;;;7.34;100.00;100863.66;5136486;27;20051;-67
2022/11/28 05:53:37;;;;;;;7.90;5.00;;;;;;;7.35;100.00;100861.94;5136224;27;20063;-67
2022/11/28 05:56:11;;;;;;;7.97;4.68;;;;;;;7.35;100.00;100865.44;5136787;27;20119;-67
2022/11/28 05:58:37;;;;;;;8.80;4.88;;;;;;;7.35;100.00;100859.28;5136723;27;20023;-67
2022/11/28 06:01:17;;;;;;;5.60;4.45;;;;;;;7.35;100.00;100856.66;5136597;27;20034;-66
2022/11/28 06:03:43;;;;;;;10.65;5.35;;;;;;;7.33;100.00;100855.75;5136530;27;20084;-68
2022/11/28 06:06:20;;;;;;;8.38;4.70;;;;;;;7.31;100.00;100852.19;5136456;27;20027;-67
2022/11/28 06:08:47;;;;;;;6.03;5.00;;;;;;;7.33;100.00;100856.66;5136416;27;20027;-67
2022/11/28 06:11:13;;;;;;;5.53;4.57;;;;;;;7.34;100.00;100855.78;5136394;27;20028;-67
2022/11/28 06:13:42;;;;;;;7.88;5.10;;;;;;;7.31;100.00;100854.81;5134927;27;20027;-67
2022/11/28 06:16:13;;;;;;;6.57;4.90;;;;;;;7.32;100.00;100854.84;5136223;27;20052;-67
2022/11/28 06:18:39;;;;;;;7.15;5.07;;;;;;;7.31;100.00;100855.69;5134946;27;20019;-67
2022/11/28 06:21:06;;;;;;;7.97;5.22;;;;;;;7.33;100.00;100859.28;5136124;27;20027;-67
2022/11/28 06:23:32;;;;;;;6.43;5.45;;;;;;;7.34;100.00;100858.41;5136047;27;20050;-67
2022/11/28 06:26:04;;;;;;;9.82;5.43;;;;;;;7.34;100.00;100874.19;5135999;27;20061;-68
2022/11/28 06:28:29;;;;;;;5.88;4.97;;;;;;;7.35;100.00;100864.56;5136362;27;20079;-67
2022/11/28 06:30:55;;;;;;;7.32;5.28;;;;;;;7.34;100.00;100866.31;5136056;27;20384;-67
2022/11/28 06:33:20;;;;;;;7.00;5.22;;;;;;;7.31;100.00;100865.31;5134515;27;20038;-68
2022/11/28 06:35:45;;;;;;;7.35;5.07;;;;;;;7.36;100.00;100871.59;5136099;27;20062;-67
2022/11/28 06:38:11;;;;;;;6.82;5.47;;;;;;;7.36;100.00;100872.47;5135848;27;20023;-67
2022/11/28 06:40:40;;;;;;;7.68;5.13;;;;;;;7.37;100.00;100884.78;5136090;27;20046;-67
2022/11/28 06:43:05;;;;;;;7.78;5.43;;;;;;;7.36;100.00;100867.22;5135804;27;20385;-67
2022/11/28 06:45:33;;;;;;;7.50;5.53;;;;;;;7.38;100.00;100883.91;5134253;27;20031;-67
2022/11/28 06:47:59;;;;;;;7.75;5.85;;;;;;;7.38;100.00;100877.78;5135674;27;20020;-67
2022/11/28 06:50:25;;;;;;;9.50;5.53;;;;;;;7.37;100.00;100862.88;5135324;27;20031;-67
2022/11/28 06:52:50;;;;;;;9.43;6.00;;;;;;;7.40;100.00;100871.69;5135146;27;20062;-67
2022/11/28 06:55:16;;;;;;;7.85;5.95;;;;;;;7.40;100.00;100876.06;5135436;27;20084;-67
2022/11/28 06:57:42;;;;;;;10.10;6.10;;;;;;;7.41;100.00;100876.13;5135440;27;20034;-67
2022/11/28 07:00:08;;;;;;;7.85;6.10;;;;;;;7.43;100.00;100877.03;5133967;27;20503;-67
2022/11/28 07:02:34;;;;;;;7.88;6.38;;;;;;;7.43;100.00;100878.78;5135513;27;20023;-68
2022/11/28 07:04:59;;;;;;;7.75;6.43;;;;;;;7.44;100.00;100885.81;5135178;27;20102;-67
2022/11/28 07:07:24;;;;;;;9.38;6.47;;;;;;;7.48;100.00;100880.66;5134076;27;20038;-66
2022/11/28 07:09:50;;;;;;;8.02;6.38;;;;;;;7.46;100.00;100873.59;5135038;27;20026;-67
2022/11/28 07:12:16;;;;;;;7.93;6.32;;;;;;;7.47;100.00;100881.50;5135087;27;20019;-67
2022/11/28 07:14:42;;;;;;;8.80;6.30;;;;;;;7.50;100.00;100886.84;5134970;27;20434;-67
2022/11/28 07:17:07;;;;;;;8.45;6.50;;;;;;;7.49;100.00;100894.69;5134835;27;20381;-67
2022/11/28 07:19:33;;;;;;;9.35;6.70;;;;;;;7.48;100.00;100883.28;5134650;27;20115;-67
2022/11/28 07:21:58;;;;;;;8.50;6.65;;;;;;;7.47;100.00;100889.41;5133752;27;20045;-67
2022/11/28 07:24:24;;;;;;;9.63;6.78;;;;;;;7.47;100.00;100891.16;5134864;27;20035;-67
2022/11/28 07:26:49;;;;;;;8.10;6.68;;;;;;;7.46;100.00;100890.25;5134921;27;20050;-67
2022/11/28 07:29:16;;;;;;;8.35;6.85;;;;;;;7.43;100.00;100889.28;5135125;27;20023;-67
2022/11/28 07:31:41;;;;;;;11.13;7.05;;;;;;;7.49;100.00;100897.31;5134895;27;20023;-67
2022/11/28 07:34:08;;;;;;;9.40;7.78;;;;;;;7.48;100.00;100893.78;5134706;27;20030;-67
2022/11/28 07:36:34;;;;;;;11.25;7.93;;;;;;;7.48;100.00;100896.44;5134804;27;20023;-66
2022/11/28 07:39:01;;;;;;;12.13;8.00;;;;;;;7.49;100.00;100892.06;5133309;27;20034;-67
2022/11/28 07:41:28;;;;;;;13.52;8.18;;;;;;;7.48;100.00;100901.69;5134847;27;20027;-67
2022/11/28 07:43:56;;;;;;;10.60;7.93;;;;;;;7.49;100.00;100914.00;5134587;27;20027;-66
2022/11/28 07:46:23;;;;;;;10.23;8.38;;;;;;;7.46;100.00;100905.16;5134886;27;20020;-67
2022/11/28 07:48:48;;;;;;;11.75;8.43;;;;;;;7.45;100.00;100913.84;5134669;27;20027;-66
2022/11/28 07:51:23;;;;;;;11.75;8.27;;;;;;;7.43;100.00;100905.06;5134177;27;20046;-67
2022/11/28 07:53:48;;;;;;;13.18;8.98;;;;;;;7.46;100.00;100910.41;5134042;27;20172;-67
2022/11/28 07:56:17;;;;;;;11.60;8.90;;;;;;;7.49;100.00;100913.09;5134568;27;20097;-67
2022/11/28 07:58:43;;;;;;;11.80;8.60;;;;;;;7.51;100.00;100921.91;5133669;27;20027;-67
2022/11/28 08:01:24;;;;;;;13.25;8.95;;;;;;;7.52;100.00;100924.56;5134609;27;20027;-67
2022/11/28 08:03:51;;;;;;;13.23;9.35;;;;;;;7.55;100.00;100925.50;5134337;27;20385;-67
2022/11/28 08:06:18;;;;;;;13.32;9.48;;;;;;;7.50;100.00;100926.28;5134217;27;20028;-66
2022/11/28 08:08:45;;;;;;;12.35;9.43;;;;;;;7.50;100.00;100920.16;5134224;27;20113;-67
2022/11/28 08:11:12;;;;;;;11.63;8.65;;;;;;;7.54;100.00;100932.53;5134042;27;20027;-67
2022/11/28 08:13:38;;;;;;;15.52;9.27;;;;;;;7.55;100.00;100929.03;5134108;27;20019;-67
2022/11/28 08:16:05;;;;;;;13.60;9.18;;;;;;;7.55;100.00;100926.41;5134063;27;20031;-67
2022/11/28 08:18:32;;;;;;;11.93;9.02;;;;;;;7.57;100.00;100921.16;5133934;27;20026;-67
2022/11/28 08:21:12;;;;;;;12.82;9.15;;;;;;;7.56;100.00;100928.16;5132625;27;20031;-67
2022/11/28 08:23:38;;;;;;;12.63;9.05;;;;;;;7.59;100.00;100932.63;5134299;27;20037;-67
2022/11/28 08:26:07;;;;;;;10.20;8.60;;;;;;;7.61;100.00;100931.78;5133959;27;20080;-67
2022/11/28 08:28:32;;;;;;;12.68;9.27;;;;;;;7.63;100.00;100935.38;5133891;27;20422;-67
2022/11/28 08:31:00;;;;;;;13.25;9.20;;;;;;;7.65;100.00;100932.75;5133923;27;20023;-66
2022/11/28 08:33:26;;;;;;;11.85;9.52;;;;;;;7.66;100.00;100938.03;5133990;27;20088;-67
2022/11/28 08:35:51;;;;;;;12.95;9.07;;;;;;;7.68;100.00;100938.09;5134090;27;20023;-67
2022/11/28 08:38:17;;;;;;;12.65;9.00;;;;;;;7.68;100.00;100938.09;5131725;28;20020;-67
2022/11/28 08:40:43;;;;;;;11.00;8.50;;;;;;;7.67;100.00;100933.69;5133757;27;20035;-67
2022/11/28 08:43:08;;;;;;;12.45;8.48;;;;;;;7.70;100.00;100939.91;5133762;28;20088;-67
2022/11/28 08:45:36;;;;;;;11.55;9.07;;;;;;;7.71;100.00;100936.44;5132558;28;20031;-67
2022/11/28 08:48:02;;;;;;;12.15;9.02;;;;;;;7.73;100.00;100941.72;5133689;27;20022;-68
2022/11/28 08:50:27;;;;;;;10.88;8.65;;;;;;;7.75;100.00;100943.56;5133499;27;20023;-67
2022/11/28 08:52:54;;;;;;;11.32;8.82;;;;;;;7.75;100.00;100947.91;5133437;27;20142;-68
2022/11/28 08:55:19;;;;;;;10.98;8.82;;;;;;;7.77;100.00;100949.72;5133614;28;20034;-68
2022/11/28 08:57:44;;;;;;;11.45;8.77;;;;;;;7.77;100.00;100940.94;5133633;28;20023;-69
2022/11/28 09:00:10;;;;;;;12.00;9.32;;;;;;;7.76;100.00;100942.69;5133686;28;20472;-67
2022/11/28 09:02:36;;;;;;;11.40;8.57;;;;;;;7.78;100.00;100935.72;5132233;28;20038;-69
2022/11/28 09:05:01;;;;;;;13.10;9.57;;;;;;;7.81;100.00;100936.66;5133566;28;20024;-68
2022/11/28 09:07:27;;;;;;;12.95;9.35;;;;;;;7.83;100.00;100937.56;5112184;28;20032;-67
2022/11/28 09:09:52;;;;;;;14.55;9.48;;;;;;;7.84;100.00;100942.00;5097251;28;20106;-68
2022/11/28 09:12:17;;;;;;;13.88;9.27;;;;;;;7.87;100.00;100940.28;5117027;28;20024;-67
2022/11/28 09:14:43;;;;;;;13.55;9.63;;;;;;;7.89;100.00;100945.63;5116886;28;20032;-68
2022/11/28 09:17:08;;;;;;;18.25;10.65;;;;;;;7.89;100.00;100949.13;5115727;28;20104;-68
2022/11/28 09:19:34;;;;;;;14.38;10.05;;;;;;;7.90;100.00;100947.38;5116636;28;20507;-66
2022/11/28 09:21:59;;;;;;;15.55;9.82;;;;;;;7.90;100.00;100956.16;5115612;28;20028;-67
2022/11/28 09:24:24;;;;;;;12.73;8.90;;;;;;;7.91;100.00;100951.78;5116773;28;20130;-67
2022/11/28 09:26:50;;;;;;;12.27;8.88;;;;;;;7.93;100.00;100956.25;5116720;28;20111;-67
2022/11/28 09:29:15;;;;;;;11.90;8.80;;;;;;;7.94;100.00;100957.13;5116706;28;20027;-67
2022/11/28 09:31:40;;;;;;;12.93;8.57;;;;;;;7.95;100.00;100953.63;5116566;28;20492;-67
2022/11/28 09:34:06;;;;;;;13.45;8.82;;;;;;;7.96;100.00;100958.03;5116503;28;20032;-67
2022/11/28 09:36:31;;;;;;;13.02;9.25;;;;;;;8.00;100.00;100957.25;5116492;28;20031;-67
2022/11/28 09:38:59;;;;;;;11.45;8.32;;;;;;;8.00;100.00;100958.13;5116497;28;20027;-67
2022/11/28 09:41:39;;;;;;;11.65;9.15;;;;;;;8.01;100.00;100957.31;5116373;28;20055;-67
2022/11/28 09:44:21;;;;;;;14.02;9.13;;;;;;;8.02;100.00;100964.34;5116663;28;20150;-67
2022/11/28 09:46:50;;;;;;;14.23;9.25;;;;;;;8.01;100.00;100953.78;5116370;28;20031;-67
2022/11/28 09:49:47;;;;;;;14.02;8.63;;;;;;;8.06;100.00;100959.16;5116502;28;20034;-67
2022/11/28 09:52:24;;;;;;;12.70;8.43;;;;;;;8.07;100.00;100953.91;5114214;28;20042;-67
2022/11/28 09:55:13;;;;;;;16.40;9.10;;;;;;;8.09;100.00;100967.09;5116082;27;20035;-68
2022/11/28 09:57:44;;;;;;;11.15;8.43;;;;;;;8.11;100.00;100968.94;5116089;28;20024;-66
2022/11/28 10:00:17;;;;;;;11.02;8.18;;;;;;;8.11;100.00;100963.66;5116053;28;20066;-67
2022/11/28 10:03:13;;;;;;;13.20;8.77;;;;;;;8.16;100.00;100969.91;5116021;28;20493;-67
2022/11/28 10:05:52;;;;;;;12.38;8.45;;;;;;;8.17;100.00;100969.03;5115917;28;20393;-67
2022/11/28 10:08:44;;;;;;;12.32;8.07;;;;;;;8.19;100.00;100967.34;5116040;28;20059;-67
2022/11/28 10:11:31;;;;;;;11.05;8.07;;;;;;;8.23;100.00;100957.78;5112957;28;20484;-67
2022/11/28 10:14:41;;;;;;;11.35;8.32;;;;;;;8.28;100.00;100964.03;5115746;28;20028;-67
2022/11/28 10:17:23;;;;;;;10.40;7.10;;;;;;;8.31;100.00;100965.81;5115769;28;20020;-67
2022/11/28 10:20:04;;;;;;;10.32;7.65;;;;;;;8.28;100.00;100958.78;5115615;28;20031;-67
2022/11/28 10:22:36;;;;;;;9.57;7.57;;;;;;;8.34;100.00;100960.63;5115209;28;20366;-67
2022/11/28 10:25:17;;;;;;;11.40;7.97;;;;;;;8.36;100.00;100958.94;5115567;28;20038;-68
2022/11/28 10:27:43;;;;;;;14.18;9.25;;;;;;;8.38;100.00;100955.50;5115756;28;20066;-67
2022/11/28 10:30:17;;;;;;;14.23;9.73;;;;;;;8.41;100.00;100962.59;5115235;28;20410;-68
2022/11/28 10:32:47;;;;;;;13.48;9.57;;;;;;;8.43;100.00;100961.75;5115382;28;20042;-67
2022/11/28 10:35:38;;;;;;;12.98;8.90;;;;;;;8.46;100.00;100959.19;5115341;28;20119;-67
2022/11/28 10:38:10;;;;;;;13.50;9.35;;;;;;;8.50;100.00;100958.41;5115504;27;20119;-67
2022/11/28 10:40:49;;;;;;;13.10;8.87;;;;;;;8.52;100.00;100968.97;5115178;28;20036;-68
2022/11/28 10:43:23;;;;;;;15.57;9.90;;;;;;;8.55;100.00;100960.25;5115161;28;20039;-68
2022/11/28 10:46:06;;;;;;;13.90;9.93;;;;;;;8.53;100.00;100960.22;5124146;27;20488;-67
2022/11/28 10:48:43;;;;;;;13.32;9.32;;;;;;;8.55;100.00;100965.50;5135732;27;20096;-67
2022/11/28 10:51:54;;;;;;;12.98;9.43;;;;;;;8.57;100.00;100962.06;5135550;27;20027;-66
2022/11/28 10:54:34;;;;;;;13.77;9.15;;;;;;;8.60;100.00;100966.50;5105695;27;20142;-67
2022/11/28 10:57:20;;;;;;;14.20;9.70;;;;;;;8.63;100.00;100964.81;5135500;27;20026;-66
2022/11/28 10:59:57;;;;;;;12.60;9.02;;;;;;;8.64;100.00;100968.34;5135589;27;20023;-66
2022/11/28 11:02:44;;;;;;;15.10;9.88;;;;;;;8.64;100.00;100974.47;5135462;27;20483;-66
2022/11/28 11:05:16;;;;;;;14.02;10.30;;;;;;;8.66;100.00;100971.91;5135513;27;20080;-66
2022/11/28 11:07:49;;;;;;;13.10;9.32;;;;;;;8.66;100.00;100972.78;5135533;27;20023;-66
2022/11/28 11:10:45;;;;;;;14.30;10.68;;;;;;;8.68;100.00;100978.06;5135205;27;20047;-66
2022/11/28 11:13:25;;;;;;;17.00;10.80;;;;;;;8.70;100.00;100977.25;5129913;27;20089;-66
2022/11/28 11:15:59;;;;;;;14.85;10.25;;;;;;;8.71;100.00;100979.03;5135431;27;20383;-66
2022/11/28 11:18:27;;;;;;;16.35;11.05;;;;;;;8.71;100.00;100968.50;5134761;27;20059;-66
2022/11/28 11:21:24;;;;;;;17.48;11.85;;;;;;;8.75;100.00;100962.44;5134822;27;20011;-66
2022/11/28 11:24:16;;;;;;;21.52;12.20;;;;;;;8.76;100.00;100966.84;5134902;27;20072;-66
2022/11/28 11:26:44;;;;;;;18.15;11.68;;;;;;;8.77;100.00;100965.09;5134761;27;20031;-66
2022/11/28 11:29:31;;;;;;;19.52;12.30;;;;;;;8.79;100.00;100966.03;5134887;27;20503;-67
2022/11/28 11:32:02;;;;;;;19.90;12.73;;;;;;;8.78;100.00;100972.16;5134533;27;20027;-66
2022/11/28 11:34:34;;;;;;;21.52;13.82;;;;;;;8.81;100.00;100964.28;5133517;27;20110;-66
2022/11/28 11:37:27;;;;;;;24.80;13.85;;;;;;;8.86;100.00;100967.91;5134853;27;20035;-67
2022/11/28 11:39:53;;;;;;;20.63;13.13;;;;;;;8.87;100.00;100967.06;5134817;27;20114;-66
2022/11/28 11:42:21;;;;;;;21.23;13.20;;;;;;;8.88;100.00;100966.19;5134490;27;20114;-66
2022/11/28 11:44:47;;;;;;;21.83;14.13;;;;;;;8.88;100.00;100962.69;5134710;27;20039;-66